Time;durP1;ratioP1;P1;durP2;ratioP2;P2;SDS_P1;SDS_P2;PMS_P1;PMS_P2;Temp;Humidity;BMP_temperature;BMP_pressure;BME280_temperature;BME280_humidity;BME280_pressure;Samples;Min_cycle;Max_cycle;Signal;HPM_P1;HPM_P2
2024/01/14 00:02:23;;;;;;;12.35;2.20;;;3.50;99.90;;;;;;5059583;28;20054;-68
2024/01/14 00:04:49;;;;;;;17.33;2.20;;;3.50;99.90;;;;;;5059838;28;20131;-68
2024/01/14 00:07:14;;;;;;;15.07;2.22;;;3.50;99.90;;;;;;5076314;28;20036;-67
2024/01/14 00:09:40;;;;;;;14.07;2.20;;;3.50;99.90;;;;;;5076265;28;20050;-73
2024/01/14 00:12:06;;;;;;;15.80;2.38;;;3.50;99.90;;;;;;5076255;28;20046;-74
2024/01/14 00:14:32;;;;;;;12.15;2.30;;;3.50;99.90;;;;;;5076287;28;20123;-75
2024/01/14 00:16:58;;;;;;;16.20;2.35;;;3.60;99.90;;;;;;5075953;28;20094;-74
2024/01/14 00:19:24;;;;;;;13.30;1.98;;;3.60;99.90;;;;;;5076049;28;20056;-74
2024/01/14 00:21:49;;;;;;;12.38;1.90;;;3.60;99.90;;;;;;5059349;28;20047;-74
2024/01/14 00:24:16;;;;;;;14.52;2.22;;;3.60;99.90;;;;;;5059580;28;20075;-75
2024/01/14 00:26:41;;;;;;;13.13;1.98;;;3.60;99.90;;;;;;5075901;28;20039;-75
2024/01/14 00:29:07;;;;;;;14.30;2.05;;;3.60;99.90;;;;;;5059393;28;20392;-74
2024/01/14 00:31:33;;;;;;;13.50;2.33;;;3.60;99.90;;;;;;5059343;28;20040;-75
2024/01/14 00:33:59;;;;;;;14.48;2.25;;;3.60;99.90;;;;;;5076225;28;20036;-74
2024/01/14 00:36:24;;;;;;;11.38;1.90;;;3.60;99.90;;;;;;5075546;28;20127;-74
2024/01/14 00:38:50;;;;;;;11.93;1.92;;;3.50;99.90;;;;;;5075678;28;20093;-74
2024/01/14 00:41:16;;;;;;;17.75;2.42;;;3.50;99.90;;;;;;5059157;28;20071;-74
2024/01/14 00:43:42;;;;;;;14.02;2.10;;;3.50;99.90;;;;;;5058574;28;20504;-74
2024/01/14 00:46:08;;;;;;;14.48;2.28;;;3.50;99.90;;;;;;5058727;28;20071;-74
2024/01/14 00:48:34;;;;;;;15.45;2.55;;;3.40;99.90;;;;;;5075648;28;20087;-74
2024/01/14 00:51:00;;;;;;;12.27;2.28;;;3.40;99.90;;;;;;5075333;28;20092;-73
2024/01/14 00:53:26;;;;;;;15.18;2.20;;;3.50;99.90;;;;;;5075530;28;20178;-74
2024/01/14 00:55:52;;;;;;;13.20;1.88;;;3.50;99.90;;;;;;5075342;28;20123;-74
2024/01/14 00:58:17;;;;;;;16.70;2.25;;;3.60;99.90;;;;;;5075501;28;20051;-74
2024/01/14 01:00:43;;;;;;;14.52;2.35;;;3.60;99.90;;;;;;5058083;28;20178;-74
2024/01/14 01:03:09;;;;;;;11.10;1.92;;;3.60;99.90;;;;;;5075234;28;20377;-74
2024/01/14 01:05:35;;;;;;;13.77;2.47;;;3.60;99.90;;;;;;5058810;28;20040;-74
2024/01/14 01:08:01;;;;;;;17.85;2.42;;;3.60;99.90;;;;;;5074895;28;20126;-74
2024/01/14 01:10:27;;;;;;;11.57;2.13;;;3.70;99.90;;;;;;5075208;28;20142;-73
2024/01/14 01:12:53;;;;;;;13.10;2.20;;;3.70;99.90;;;;;;5075164;28;20469;-73
2024/01/14 01:15:19;;;;;;;13.10;2.10;;;3.70;99.90;;;;;;5075495;28;20040;-75
2024/01/14 01:17:44;;;;;;;15.30;2.05;;;3.70;99.90;;;;;;5075059;28;20105;-73
2024/01/14 01:20:11;;;;;;;14.52;2.00;;;3.70;99.90;;;;;;5075584;28;20051;-75
2024/01/14 01:22:36;;;;;;;18.23;2.70;;;3.70;99.90;;;;;;5075181;28;20127;-73
2024/01/14 01:25:03;;;;;;;13.50;2.10;;;3.70;99.90;;;;;;5058536;28;20442;-73
2024/01/14 01:27:29;;;;;;;16.52;2.20;;;3.70;99.90;;;;;;5074868;28;20044;-74
2024/01/14 01:29:58;;;;;;;14.30;2.15;;;3.70;99.90;;;;;;5075301;28;20508;-74
2024/01/14 01:32:24;;;;;;;14.88;2.10;;;3.70;99.90;;;;;;5075085;28;20127;-74
2024/01/14 01:34:50;;;;;;;15.35;1.90;;;3.70;99.90;;;;;;5093382;28;20476;-75
2024/01/14 01:37:16;;;;;;;15.60;2.17;;;3.70;99.90;;;;;;5075894;28;20176;-73
2024/01/14 01:39:41;;;;;;;20.52;2.22;;;3.70;99.90;;;;;;5063742;28;20051;-74
2024/01/14 01:42:07;;;;;;;12.68;2.10;;;3.70;99.90;;;;;;5058418;28;20036;-74
2024/01/14 01:44:33;;;;;;;11.65;1.92;;;3.70;99.90;;;;;;5058243;28;20048;-74
2024/01/14 01:47:00;;;;;;;14.95;2.17;;;3.70;99.90;;;;;;5058028;28;20039;-74
2024/01/14 01:49:31;;;;;;;12.80;2.10;;;3.70;99.90;;;;;;5074878;28;20040;-74
2024/01/14 01:51:58;;;;;;;13.60;1.92;;;3.60;99.90;;;;;;5058428;28;20040;-74
2024/01/14 01:54:27;;;;;;;12.18;1.80;;;3.60;99.90;;;;;;5074646;28;20036;-74
2024/01/14 01:56:54;;;;;;;12.88;2.00;;;3.60;99.90;;;;;;5074626;28;20050;-74
2024/01/14 01:59:21;;;;;;;13.15;1.88;;;3.60;99.90;;;;;;5057757;28;20044;-74
2024/01/14 02:01:48;;;;;;;11.80;1.92;;;3.60;99.90;;;;;;5074758;28;20412;-74
2024/01/14 02:04:14;;;;;;;13.38;2.10;;;3.60;99.90;;;;;;5058442;28;20408;-74
2024/01/14 02:06:41;;;;;;;13.80;2.30;;;3.60;99.90;;;;;;5074405;28;20048;-74
2024/01/14 02:09:08;;;;;;;15.75;1.90;;;3.60;99.90;;;;;;5074572;28;20045;-75
2024/01/14 02:11:35;;;;;;;12.23;2.00;;;3.70;99.90;;;;;;5074836;28;20032;-75
2024/01/14 02:14:01;;;;;;;14.00;2.03;;;3.70;99.90;;;;;;5060657;28;20404;-74
2024/01/14 02:16:27;;;;;;;9.10;1.73;;;3.70;99.90;;;;;;5044993;28;20052;-74
2024/01/14 02:18:53;;;;;;;10.65;1.60;;;3.70;99.90;;;;;;5095572;28;20052;-75
2024/01/14 02:21:45;;;;;;;11.32;1.65;;;3.70;99.90;;;;;;5061824;28;20039;-75
2024/01/14 02:24:27;;;;;;;10.65;1.55;;;3.70;99.90;;;;;;5078281;28;20513;-74
2024/01/14 02:26:53;;;;;;;10.57;1.60;;;3.70;99.90;;;;;;5078275;28;20040;-74
2024/01/14 02:29:20;;;;;;;10.13;1.60;;;3.70;99.90;;;;;;5061668;28;20051;-74
2024/01/14 02:31:46;;;;;;;8.27;1.48;;;3.70;99.90;;;;;;5078431;28;20388;-74
2024/01/14 02:34:12;;;;;;;12.27;1.60;;;3.70;99.90;;;;;;5078386;28;20043;-74
2024/01/14 02:36:38;;;;;;;12.30;2.10;;;3.70;99.90;;;;;;5078273;28;20043;-74
2024/01/14 02:39:07;;;;;;;13.20;1.85;;;3.70;99.90;;;;;;5061271;28;20136;-74
2024/01/14 02:41:34;;;;;;;12.57;1.95;;;3.60;99.90;;;;;;5044987;28;20133;-74
2024/01/14 02:44:00;;;;;;;12.45;1.95;;;3.60;99.90;;;;;;5078152;28;20556;-75
2024/01/14 02:46:30;;;;;;;13.73;1.90;;;3.60;99.90;;;;;;5077929;28;20412;-74
2024/01/14 02:48:57;;;;;;;13.93;1.98;;;3.70;99.90;;;;;;5078000;28;20424;-75
2024/01/14 02:51:23;;;;;;;15.95;2.10;;;3.70;99.90;;;;;;5061722;28;20036;-68
2024/01/14 02:53:49;;;;;;;12.73;1.95;;;3.60;99.90;;;;;;5077557;28;20048;-68
2024/01/14 02:56:15;;;;;;;13.45;2.00;;;3.60;99.90;;;;;;5078012;28;20036;-68
2024/01/14 02:58:41;;;;;;;12.98;1.70;;;3.50;99.90;;;;;;5044269;28;20076;-68
2024/01/14 03:01:07;;;;;;;15.32;2.00;;;3.40;99.90;;;;;;5060585;28;20123;-68
2024/01/14 03:03:33;;;;;;;16.17;1.83;;;3.40;99.90;;;;;;5077512;28;20132;-68
2024/01/14 03:05:59;;;;;;;14.25;2.28;;;3.40;99.90;;;;;;5077330;28;20048;-68
2024/01/14 03:08:24;;;;;;;9.98;1.70;;;3.30;99.90;;;;;;5060797;28;20101;-68
2024/01/14 03:10:50;;;;;;;15.18;2.10;;;3.30;99.90;;;;;;5077421;28;20039;-68
2024/01/14 03:13:16;;;;;;;16.38;2.00;;;3.20;99.90;;;;;;5077310;28;20040;-68
2024/01/14 03:15:42;;;;;;;11.65;1.67;;;3.20;99.90;;;;;;5077212;28;20066;-68
2024/01/14 03:18:08;;;;;;;15.23;2.22;;;3.20;99.90;;;;;;5060918;28;20139;-68
2024/01/14 03:20:34;;;;;;;13.70;1.98;;;3.20;99.90;;;;;;5077294;28;20075;-68
2024/01/14 03:23:00;;;;;;;13.23;2.05;;;3.10;99.90;;;;;;5077047;28;20099;-68
2024/01/14 03:25:26;;;;;;;15.05;2.05;;;3.10;99.90;;;;;;5059956;28;20131;-68
2024/01/14 03:27:52;;;;;;;11.35;1.83;;;3.10;99.90;;;;;;5060396;28;20036;-68
2024/01/14 03:30:18;;;;;;;14.45;1.90;;;3.10;99.90;;;;;;5077375;28;20040;-68
2024/01/14 03:32:44;;;;;;;18.83;2.47;;;3.10;99.90;;;;;;5076561;28;20040;-68
2024/01/14 03:35:10;;;;;;;17.05;2.13;;;3.00;99.90;;;;;;5076815;28;20040;-68
2024/01/14 03:37:35;;;;;;;20.17;2.30;;;2.90;99.90;;;;;;5060386;28;20044;-68
2024/01/14 03:40:01;;;;;;;15.27;2.20;;;3.00;99.90;;;;;;5076874;28;20122;-68
2024/01/14 03:42:27;;;;;;;18.15;2.35;;;2.90;99.90;;;;;;5060499;28;20097;-68
2024/01/14 03:44:53;;;;;;;15.18;2.40;;;3.00;99.90;;;;;;5060328;28;20036;-68
2024/01/14 03:47:19;;;;;;;16.33;2.35;;;3.00;99.90;;;;;;5076651;28;20032;-68
2024/01/14 03:49:44;;;;;;;17.08;2.38;;;2.90;99.90;;;;;;5076677;28;20040;-68
2024/01/14 03:52:10;;;;;;;15.30;2.10;;;3.00;99.90;;;;;;5076526;28;20090;-67
2024/01/14 03:54:36;;;;;;;16.90;1.98;;;2.90;99.90;;;;;;5060004;28;20047;-68
2024/01/14 03:57:02;;;;;;;13.32;1.92;;;2.90;99.90;;;;;;5043241;28;20488;-68
2024/01/14 03:59:27;;;;;;;15.85;2.45;;;2.90;99.90;;;;;;5076499;28;20069;-74
2024/01/14 04:01:53;;;;;;;16.90;2.42;;;2.80;99.90;;;;;;5076431;28;20055;-74
2024/01/14 04:04:19;;;;;;;14.85;2.00;;;2.80;99.90;;;;;;5076158;28;20097;-74
2024/01/14 04:06:45;;;;;;;16.85;2.08;;;2.90;99.90;;;;;;5059564;28;20097;-73
2024/01/14 04:09:11;;;;;;;11.38;1.92;;;2.80;99.90;;;;;;5059666;28;20051;-74
2024/01/14 04:11:37;;;;;;;17.88;2.60;;;2.90;99.90;;;;;;5076347;28;20476;-74
2024/01/14 04:14:02;;;;;;;15.00;2.13;;;2.90;99.90;;;;;;5042884;28;20036;-75
2024/01/14 04:16:38;;;;;;;22.52;2.33;;;2.90;99.90;;;;;;5059374;28;20049;-74
2024/01/14 04:19:05;;;;;;;17.23;2.30;;;2.90;99.90;;;;;;5075941;28;20131;-74
2024/01/14 04:21:31;;;;;;;14.38;2.33;;;2.90;99.90;;;;;;5076039;28;20081;-74
2024/01/14 04:24:02;;;;;;;14.30;2.28;;;2.90;99.90;;;;;;5075853;28;20040;-74
2024/01/14 04:26:28;;;;;;;11.57;2.10;;;2.80;99.90;;;;;;5075942;28;20123;-74
2024/01/14 04:28:54;;;;;;;16.30;2.50;;;2.80;99.90;;;;;;5075990;28;20048;-74
2024/01/14 04:31:21;;;;;;;11.52;2.05;;;2.80;99.90;;;;;;5059268;28;20381;-74
2024/01/14 04:33:47;;;;;;;13.38;1.95;;;2.80;99.90;;;;;;5059466;28;20366;-74
2024/01/14 04:36:16;;;;;;;16.95;2.20;;;2.80;99.90;;;;;;5074665;28;20122;-74
2024/01/14 04:38:42;;;;;;;20.08;2.50;;;2.80;99.90;;;;;;5075617;28;20123;-74
2024/01/14 04:41:08;;;;;;;17.95;2.20;;;2.80;99.90;;;;;;5075996;28;20062;-74
2024/01/14 04:43:36;;;;;;;19.92;2.40;;;2.80;99.90;;;;;;5075424;28;20044;-74
2024/01/14 04:46:02;;;;;;;15.05;2.13;;;2.70;99.90;;;;;;5075502;28;20044;-74
2024/01/14 04:48:28;;;;;;;15.40;2.45;;;2.70;99.90;;;;;;5059023;28;20036;-74
2024/01/14 04:50:54;;;;;;;20.02;2.30;;;2.70;99.90;;;;;;5075801;28;20423;-72
2024/01/14 04:53:20;;;;;;;18.58;2.10;;;2.70;99.90;;;;;;5042486;28;20040;-75
2024/01/14 04:55:46;;;;;;;16.35;2.10;;;2.70;99.90;;;;;;5058492;28;20040;-74
2024/01/14 04:58:12;;;;;;;15.80;2.20;;;2.70;99.90;;;;;;5075695;28;20422;-74
2024/01/14 05:00:37;;;;;;;19.55;2.67;;;2.60;99.90;;;;;;5075503;28;20044;-74
2024/01/14 05:03:04;;;;;;;18.20;2.20;;;2.70;99.90;;;;;;5058809;28;20504;-74
2024/01/14 05:05:29;;;;;;;14.27;2.38;;;2.70;99.90;;;;;;5058604;28;20127;-74
2024/01/14 05:07:55;;;;;;;16.63;2.20;;;2.70;99.90;;;;;;5041699;28;20119;-75
2024/01/14 05:10:21;;;;;;;19.10;2.20;;;2.70;99.90;;;;;;5058635;28;20047;-67
2024/01/14 05:12:47;;;;;;;16.40;2.13;;;2.70;99.90;;;;;;5042161;28;20032;-68
2024/01/14 05:15:13;;;;;;;12.70;2.13;;;2.70;99.90;;;;;;5075213;28;20032;-68
2024/01/14 05:17:38;;;;;;;12.80;2.05;;;2.70;99.90;;;;;;5074833;28;20098;-67
2024/01/14 05:20:05;;;;;;;12.75;1.85;;;2.70;99.90;;;;;;5075004;28;20093;-68
2024/01/14 05:22:31;;;;;;;14.43;1.90;;;2.70;99.90;;;;;;5058227;28;20039;-68
2024/01/14 05:24:57;;;;;;;16.17;1.95;;;2.70;99.90;;;;;;5041748;28;20040;-68
2024/01/14 05:27:23;;;;;;;17.08;2.50;;;2.70;99.90;;;;;;5074802;28;20527;-68
2024/01/14 05:29:49;;;;;;;15.10;2.13;;;2.60;99.90;;;;;;5058273;28;20040;-68
2024/01/14 05:32:16;;;;;;;14.85;2.10;;;2.70;99.90;;;;;;5058503;28;20032;-68
2024/01/14 05:34:42;;;;;;;17.00;2.50;;;2.60;99.90;;;;;;5058215;28;20032;-68
2024/01/14 05:37:08;;;;;;;16.05;2.28;;;2.60;99.90;;;;;;5058125;28;20043;-68
2024/01/14 05:39:34;;;;;;;14.63;2.20;;;2.60;99.90;;;;;;5041355;28;20048;-68
2024/01/14 05:42:01;;;;;;;18.02;2.38;;;2.60;99.90;;;;;;5074781;28;20052;-67
2024/01/14 05:44:26;;;;;;;17.42;2.38;;;2.60;99.90;;;;;;5074757;28;20042;-68
2024/01/14 05:46:53;;;;;;;15.70;2.08;;;2.50;99.90;;;;;;5057624;28;20404;-68
2024/01/14 05:49:20;;;;;;;12.52;2.10;;;2.50;99.90;;;;;;5075033;28;20105;-68
2024/01/14 05:51:46;;;;;;;15.57;1.83;;;2.50;99.90;;;;;;5058190;28;20047;-67
2024/01/14 05:54:12;;;;;;;11.45;1.85;;;2.50;99.90;;;;;;5058254;28;20082;-68
2024/01/14 05:56:38;;;;;;;13.30;1.88;;;2.50;99.90;;;;;;5074421;28;20066;-68
2024/01/14 05:59:04;;;;;;;13.68;1.90;;;2.50;99.90;;;;;;5058262;28;20044;-68
2024/01/14 06:01:30;;;;;;;14.75;1.80;;;2.60;99.90;;;;;;5074550;28;20131;-68
2024/01/14 06:03:56;;;;;;;14.50;1.90;;;2.50;99.90;;;;;;5074502;28;20082;-68
2024/01/14 06:06:22;;;;;;;15.73;1.90;;;2.60;99.90;;;;;;5074465;28;20040;-67
2024/01/14 06:08:48;;;;;;;15.60;1.83;;;2.50;99.90;;;;;;5074286;28;20068;-68
2024/01/14 06:11:14;;;;;;;14.20;1.80;;;2.50;99.90;;;;;;5057855;28;20036;-67
2024/01/14 06:13:41;;;;;;;14.27;1.90;;;2.50;99.90;;;;;;5057750;28;20040;-68
2024/01/14 06:16:11;;;;;;;12.02;1.63;;;2.60;99.90;;;;;;5074347;28;20054;-67
2024/01/14 06:18:39;;;;;;;11.90;1.67;;;2.60;99.90;;;;;;5074628;28;20500;-68
2024/01/14 06:21:05;;;;;;;10.73;1.70;;;2.60;99.90;;;;;;5057850;28;20047;-74
2024/01/14 06:23:30;;;;;;;12.27;1.90;;;2.60;99.90;;;;;;5074698;28;20036;-74
2024/01/14 06:25:57;;;;;;;8.75;1.95;;;2.60;99.90;;;;;;5041158;28;20075;-74
2024/01/14 06:28:22;;;;;;;11.10;2.00;;;2.70;99.90;;;;;;5074317;28;20071;-74
2024/01/14 06:30:49;;;;;;;11.23;1.70;;;2.60;99.90;;;;;;5041261;28;20458;-74
2024/01/14 06:33:14;;;;;;;9.38;1.95;;;2.70;99.90;;;;;;5074023;28;20047;-74
2024/01/14 06:35:40;;;;;;;15.07;1.90;;;2.60;99.90;;;;;;5057679;28;20036;-73
2024/01/14 06:38:08;;;;;;;12.05;1.65;;;2.60;99.90;;;;;;5074161;28;20044;-74
2024/01/14 06:40:34;;;;;;;12.18;1.77;;;2.60;99.90;;;;;;5057787;28;20480;-74
2024/01/14 06:42:59;;;;;;;15.02;2.17;;;2.60;99.90;;;;;;5057275;28;20082;-74
2024/01/14 06:45:25;;;;;;;14.13;1.80;;;2.60;99.90;;;;;;5074301;28;20480;-72
2024/01/14 06:47:51;;;;;;;9.90;1.80;;;2.60;99.90;;;;;;5074094;28;20051;-74
2024/01/14 06:50:17;;;;;;;11.63;1.80;;;2.70;99.90;;;;;;5040804;28;20047;-75
2024/01/14 06:52:43;;;;;;;10.65;1.90;;;2.70;99.90;;;;;;5074131;28;20043;-74
2024/01/14 06:55:10;;;;;;;11.13;2.00;;;2.70;99.90;;;;;;5057580;28;20067;-74
2024/01/14 06:57:36;;;;;;;10.68;1.77;;;2.80;99.90;;;;;;5074202;28;20153;-74
2024/01/14 07:00:04;;;;;;;13.55;2.08;;;2.80;99.90;;;;;;5059793;28;20131;-74
2024/01/14 07:02:30;;;;;;;9.73;1.67;;;2.80;99.90;;;;;;5061176;28;20082;-74
2024/01/14 07:04:57;;;;;;;15.43;2.10;;;2.90;99.90;;;;;;5077836;28;20055;-75
2024/01/14 07:07:23;;;;;;;10.35;1.90;;;2.80;99.90;;;;;;5077943;28;20047;-73
2024/01/14 07:09:49;;;;;;;14.90;2.30;;;2.80;99.90;;;;;;5080354;28;20072;-74
2024/01/14 07:12:15;;;;;;;14.65;2.17;;;2.90;99.90;;;;;;5079460;28;20044;-74
2024/01/14 07:14:41;;;;;;;17.50;2.55;;;2.90;99.90;;;;;;5060586;28;20040;-74
2024/01/14 07:17:07;;;;;;;16.33;2.17;;;2.90;99.90;;;;;;5062888;28;20056;-74
2024/01/14 07:19:35;;;;;;;17.20;2.20;;;2.90;99.90;;;;;;5040516;28;20048;-74
2024/01/14 07:22:02;;;;;;;15.00;2.00;;;2.90;99.90;;;;;;5057485;28;20500;-74
2024/01/14 07:24:28;;;;;;;14.25;1.92;;;2.90;99.90;;;;;;5075232;28;20120;-75
2024/01/14 07:26:54;;;;;;;12.85;2.10;;;2.90;99.90;;;;;;5075123;28;20479;-74
2024/01/14 07:29:19;;;;;;;13.98;2.05;;;2.90;99.90;;;;;;5041794;28;20048;-76
2024/01/14 07:31:45;;;;;;;17.85;2.45;;;2.90;99.90;;;;;;5065424;28;20130;-76
2024/01/14 07:34:11;;;;;;;11.48;1.95;;;2.90;99.90;;;;;;5046949;28;20036;-76
2024/01/14 07:36:37;;;;;;;12.07;1.92;;;2.90;99.90;;;;;;5025181;28;20045;-75
2024/01/14 07:39:04;;;;;;;13.32;2.00;;;2.90;99.90;;;;;;5057366;28;20047;-75
2024/01/14 07:41:30;;;;;;;15.82;2.10;;;2.90;99.90;;;;;;5024976;28;20063;-75
2024/01/14 07:43:56;;;;;;;10.63;2.00;;;2.90;99.90;;;;;;5057833;28;20045;-75
2024/01/14 07:46:22;;;;;;;13.93;2.13;;;2.90;99.90;;;;;;5073599;28;20056;-74
2024/01/14 07:48:48;;;;;;;14.05;1.85;;;3.00;99.90;;;;;;5056970;28;20071;-74
2024/01/14 07:51:14;;;;;;;9.85;1.70;;;2.90;99.90;;;;;;5040658;28;20045;-74
2024/01/14 07:53:40;;;;;;;13.25;2.10;;;2.90;99.90;;;;;;5040187;28;20052;-74
2024/01/14 07:56:06;;;;;;;12.70;2.10;;;2.90;99.90;;;;;;5040415;28;20032;-75
2024/01/14 07:58:32;;;;;;;14.48;1.95;;;2.90;99.90;;;;;;5056673;28;20044;-74
2024/01/14 08:00:57;;;;;;;14.57;2.13;;;2.90;99.90;;;;;;5056419;28;20032;-74
2024/01/14 08:03:23;;;;;;;11.68;1.80;;;2.90;99.90;;;;;;5056548;28;20040;-74
2024/01/14 08:05:49;;;;;;;14.23;2.05;;;2.90;99.90;;;;;;5056685;28;20036;-75
2024/01/14 08:08:15;;;;;;;11.20;1.80;;;2.90;99.90;;;;;;5056085;28;20063;-74
2024/01/14 08:10:41;;;;;;;12.13;1.83;;;2.90;99.90;;;;;;5023183;28;20044;-74
2024/01/14 08:13:07;;;;;;;8.90;1.75;;;2.90;99.90;;;;;;5056317;28;20045;-74
2024/01/14 08:15:33;;;;;;;12.27;1.90;;;3.00;99.90;;;;;;5055841;28;20040;-74
2024/01/14 08:17:59;;;;;;;14.43;1.73;;;3.00;99.90;;;;;;5056188;28;20052;-74
2024/01/14 08:20:25;;;;;;;10.07;1.80;;;3.10;99.90;;;;;;5056334;28;20044;-75
2024/01/14 08:22:54;;;;;;;9.55;1.92;;;3.10;99.90;;;;;;5056097;28;20040;-74
2024/01/14 08:25:22;;;;;;;9.07;1.95;;;3.20;99.90;;;;;;5039239;28;20077;-75
2024/01/14 08:27:51;;;;;;;9.93;2.13;;;3.20;99.90;;;;;;5055711;28;20036;-74
2024/01/14 08:30:16;;;;;;;11.00;1.85;;;3.20;99.90;;;;;;5056007;28;20127;-74
2024/01/14 08:32:43;;;;;;;10.85;2.08;;;3.20;99.90;;;;;;5039398;28;20113;-74
2024/01/14 08:35:11;;;;;;;8.20;1.70;;;3.30;99.90;;;;;;5055789;28;20047;-74
2024/01/14 08:37:36;;;;;;;8.23;1.75;;;3.30;99.90;;;;;;5039382;28;20080;-74
2024/01/14 08:40:03;;;;;;;11.88;1.90;;;3.30;99.90;;;;;;5039132;28;20514;-74
2024/01/14 08:42:29;;;;;;;8.18;1.88;;;3.40;99.90;;;;;;5055607;28;20047;-74
2024/01/14 08:44:55;;;;;;;8.50;1.73;;;3.40;99.90;;;;;;5039410;28;20497;-74
2024/01/14 08:47:20;;;;;;;10.02;1.88;;;3.40;99.90;;;;;;5055464;28;20033;-74
2024/01/14 08:49:46;;;;;;;10.02;1.80;;;3.40;99.90;;;;;;5055325;28;20063;-74
2024/01/14 08:52:12;;;;;;;9.48;2.05;;;3.50;99.90;;;;;;5055705;28;20045;-74
2024/01/14 08:54:38;;;;;;;9.27;1.83;;;3.50;99.90;;;;;;5072086;28;20040;-74
2024/01/14 08:57:04;;;;;;;9.98;1.85;;;3.60;99.90;;;;;;5038922;28;20048;-74
2024/01/14 08:59:30;;;;;;;7.47;2.00;;;3.60;99.90;;;;;;5055184;28;20091;-74
2024/01/14 09:01:55;;;;;;;9.18;2.05;;;3.60;99.90;;;;;;5055464;28;20041;-74
2024/01/14 09:04:21;;;;;;;10.23;1.98;;;3.60;99.90;;;;;;5022319;28;20401;-72
2024/01/14 09:06:47;;;;;;;9.75;2.17;;;3.60;99.90;;;;;;5022088;28;20127;-74
2024/01/14 09:09:13;;;;;;;14.23;2.42;;;3.60;99.90;;;;;;5055320;28;20032;-74
2024/01/14 09:11:39;;;;;;;9.00;2.08;;;3.60;99.90;;;;;;5054998;28;20405;-74
2024/01/14 09:14:05;;;;;;;9.80;2.15;;;3.50;99.90;;;;;;5055011;28;20508;-74
2024/01/14 09:16:31;;;;;;;10.60;2.70;;;3.60;99.90;;;;;;5047512;28;20063;-74
2024/01/14 09:18:57;;;;;;;10.40;2.67;;;3.60;99.90;;;;;;5075141;28;20054;-74
2024/01/14 09:21:25;;;;;;;9.43;2.33;;;3.60;99.90;;;;;;5074620;28;20480;-74
2024/01/14 09:23:50;;;;;;;13.13;2.50;;;3.60;99.90;;;;;;5058318;28;20044;-74
2024/01/14 09:26:16;;;;;;;8.60;2.30;;;3.60;99.90;;;;;;5058286;28;20515;-74
2024/01/14 09:28:42;;;;;;;11.55;2.70;;;3.60;99.90;;;;;;5058330;28;20557;-74
2024/01/14 09:31:08;;;;;;;7.10;2.40;;;3.60;99.90;;;;;;5058187;28;20059;-74
2024/01/14 09:33:33;;;;;;;9.15;2.70;;;3.70;99.90;;;;;;5025517;28;20411;-74
2024/01/14 09:36:07;;;;;;;10.93;2.90;;;3.70;99.90;;;;;;5057872;28;20040;-74
2024/01/14 09:38:32;;;;;;;13.48;2.50;;;3.70;99.90;;;;;;5075066;28;20474;-74
2024/01/14 09:41:42;;;;;;;9.77;2.38;;;3.80;99.90;;;;;;5058096;28;20072;-74
2024/01/14 09:44:13;;;;;;;10.05;2.45;;;3.80;99.90;;;;;;5074729;28;20127;-74
2024/01/14 09:46:39;;;;;;;7.05;1.88;;;3.80;99.90;;;;;;5074614;28;20093;-74
2024/01/14 09:49:05;;;;;;;11.13;2.50;;;3.90;99.90;;;;;;5074698;28;20040;-74
2024/01/14 09:51:33;;;;;;;9.50;2.22;;;3.90;99.90;;;;;;5058194;28;20138;-69
2024/01/14 09:54:01;;;;;;;10.18;2.30;;;3.90;99.90;;;;;;5075006;28;20443;-68
2024/01/14 09:56:32;;;;;;;10.98;2.00;;;3.90;99.90;;;;;;5057965;28;20063;-68
2024/01/14 09:59:00;;;;;;;8.95;2.00;;;3.90;99.90;;;;;;5074611;28;20047;-68
2024/01/14 10:01:31;;;;;;;9.27;1.90;;;4.00;99.90;;;;;;5074531;28;20043;-68
2024/01/14 10:04:01;;;;;;;10.40;2.05;;;4.00;99.90;;;;;;5074667;28;20040;-68
2024/01/14 10:06:27;;;;;;;8.30;1.77;;;4.00;99.90;;;;;;5057765;28;20040;-68
2024/01/14 10:08:54;;;;;;;6.82;2.05;;;4.00;99.90;;;;;;5074552;28;20047;-68
2024/01/14 10:11:20;;;;;;;8.43;1.50;;;4.10;99.90;;;;;;5074587;28;20547;-69
2024/01/14 10:13:46;;;;;;;7.47;1.58;;;4.20;99.90;;;;;;5074465;28;20040;-69
2024/01/14 10:16:12;;;;;;;7.07;1.55;;;4.40;99.90;;;;;;5057610;28;20047;-68
2024/01/14 10:18:38;;;;;;;8.18;1.42;;;4.50;99.90;;;;;;5074516;28;20040;-69
2024/01/14 10:21:04;;;;;;;4.90;1.50;;;4.50;99.90;;;;;;5057645;28;20575;-68
2024/01/14 10:23:31;;;;;;;5.50;1.30;;;4.60;99.90;;;;;;5057857;28;20040;-70
2024/01/14 10:26:02;;;;;;;4.72;1.48;;;4.60;99.90;;;;;;5057928;28;20090;-68
2024/01/14 10:28:35;;;;;;;5.88;1.20;;;4.50;99.90;;;;;;5074336;28;20046;-68
2024/01/14 10:31:03;;;;;;;4.68;1.38;;;4.50;99.90;;;;;;5074467;28;20040;-69
2024/01/14 10:33:34;;;;;;;6.22;1.60;;;4.50;99.90;;;;;;5074652;28;20560;-69
2024/01/14 10:36:00;;;;;;;7.40;1.98;;;4.50;99.90;;;;;;5078194;28;20055;-68
2024/01/14 10:38:26;;;;;;;8.18;2.05;;;4.50;99.90;;;;;;5078320;28;20126;-69
2024/01/14 10:40:52;;;;;;;6.93;2.30;;;4.50;99.90;;;;;;5061420;28;20082;-68
2024/01/14 10:43:23;;;;;;;6.57;2.20;;;4.40;99.90;;;;;;5078309;28;20048;-68
2024/01/14 10:45:50;;;;;;;6.70;2.00;;;4.40;99.90;;;;;;5061402;28;20451;-68
2024/01/14 10:48:23;;;;;;;6.80;2.35;;;4.50;99.90;;;;;;5060716;28;20135;-69
2024/01/14 10:50:54;;;;;;;7.53;2.30;;;4.40;99.90;;;;;;5077843;28;20052;-68
2024/01/14 10:53:26;;;;;;;7.18;2.67;;;4.50;99.90;;;;;;5078054;28;20496;-69
2024/01/14 10:56:03;;;;;;;9.68;3.20;;;4.50;99.90;;;;;;5077751;28;20046;-69
2024/01/14 10:58:36;;;;;;;8.77;3.80;;;4.50;99.90;;;;;;5077639;28;20051;-68
2024/01/14 11:01:07;;;;;;;10.35;4.85;;;4.50;99.90;;;;;;5077997;28;20040;-75
2024/01/14 11:03:34;;;;;;;11.68;5.40;;;4.50;99.90;;;;;;5077649;28;20040;-75
2024/01/14 11:06:01;;;;;;;10.73;5.22;;;4.40;99.90;;;;;;5060986;28;20051;-75
2024/01/14 11:08:27;;;;;;;11.48;5.18;;;4.50;99.90;;;;;;5077458;28;20040;-75
2024/01/14 11:10:54;;;;;;;11.68;6.10;;;4.50;99.90;;;;;;5044316;28;20043;-75
2024/01/14 11:13:26;;;;;;;12.55;6.30;;;4.50;99.90;;;;;;5077583;28;20523;-75
2024/01/14 11:16:09;;;;;;;13.82;6.75;;;4.40;99.90;;;;;;5060827;28;20086;-75
2024/01/14 11:18:43;;;;;;;17.17;8.95;;;4.40;99.90;;;;;;5077295;28;20127;-74
2024/01/14 11:21:58;;;;;;;17.20;9.00;;;4.40;99.90;;;;;;5077659;28;20028;-75
2024/01/14 11:24:25;;;;;;;18.95;9.77;;;4.40;99.90;;;;;;5072457;28;20048;-75
2024/01/14 11:26:54;;;;;;;22.52;11.23;;;4.30;99.90;;;;;;5077094;28;20040;-75
2024/01/14 11:29:37;;;;;;;21.75;10.07;;;4.30;99.90;;;;;;5077142;28;20056;-75
2024/01/14 11:32:20;;;;;;;21.63;10.82;;;4.40;99.90;;;;;;5076840;28;20246;-75
2024/01/14 11:34:46;;;;;;;21.73;11.75;;;4.40;99.90;;;;;;5061122;28;20115;-75
2024/01/14 11:37:32;;;;;;;20.60;10.52;;;4.40;99.90;;;;;;5076885;28;20146;-75
2024/01/14 11:40:13;;;;;;;20.92;10.77;;;4.40;99.90;;;;;;5060532;28;20044;-75
2024/01/14 11:42:51;;;;;;;21.23;11.05;;;4.50;99.90;;;;;;5076916;28;20047;-75
2024/01/14 11:45:22;;;;;;;20.65;11.05;;;4.50;99.90;;;;;;5076408;28;20040;-74
2024/01/14 11:47:50;;;;;;;20.48;10.75;;;4.50;99.90;;;;;;5076675;28;20044;-75
2024/01/14 11:50:16;;;;;;;19.25;10.75;;;4.50;99.90;;;;;;5077111;28;20040;-75
2024/01/14 11:52:46;;;;;;;19.70;9.80;;;4.60;99.90;;;;;;5076955;28;20085;-75
2024/01/14 11:55:14;;;;;;;19.27;9.93;;;4.60;99.90;;;;;;5076821;28;20044;-75
2024/01/14 11:57:40;;;;;;;18.83;9.73;;;4.70;99.90;;;;;;5059844;28;20044;-75
2024/01/14 12:00:07;;;;;;;17.35;8.57;;;4.80;99.90;;;;;;5076690;28;20048;-75
2024/01/14 12:02:34;;;;;;;18.27;8.75;;;4.80;99.90;;;;;;5076259;28;20109;-74
2024/01/14 12:05:18;;;;;;;16.95;7.97;;;4.80;99.90;;;;;;5076506;28;20511;-74
2024/01/14 12:07:44;;;;;;;14.68;7.53;;;4.80;99.90;;;;;;5076167;28;20047;-75
2024/01/14 12:10:15;;;;;;;14.15;7.85;;;4.80;99.90;;;;;;5076443;28;20048;-68
2024/01/14 12:12:42;;;;;;;16.30;7.13;;;4.80;99.90;;;;;;5076411;28;20378;-68
2024/01/14 12:15:09;;;;;;;16.20;6.85;;;4.80;99.90;;;;;;5076600;28;20032;-68
2024/01/14 12:17:35;;;;;;;15.27;7.35;;;4.80;99.90;;;;;;5059331;28;20484;-68
2024/01/14 12:20:04;;;;;;;15.60;8.23;;;4.80;99.90;;;;;;5076401;28;20079;-68
2024/01/14 12:22:30;;;;;;;15.50;8.10;;;4.70;99.90;;;;;;5076118;28;20044;-68
2024/01/14 12:24:56;;;;;;;16.42;8.07;;;4.70;99.90;;;;;;5075876;28;20152;-68
2024/01/14 12:27:22;;;;;;;14.30;7.70;;;4.70;99.90;;;;;;5042558;28;20536;-68
2024/01/14 12:29:48;;;;;;;15.88;8.18;;;4.70;99.90;;;;;;5075929;28;20059;-68
2024/01/14 12:32:13;;;;;;;16.77;8.80;;;4.60;99.90;;;;;;5076065;28;20480;-68
2024/01/14 12:34:41;;;;;;;13.23;6.80;;;4.60;99.90;;;;;;5075778;28;20039;-68
2024/01/14 12:37:07;;;;;;;16.85;7.82;;;4.60;99.90;;;;;;5075832;28;20082;-68
2024/01/14 12:39:35;;;;;;;13.98;7.88;;;4.60;99.90;;;;;;5059092;28;20548;-68
2024/01/14 12:42:01;;;;;;;13.85;7.35;;;4.60;99.90;;;;;;5075809;28;20093;-68
2024/01/14 12:44:30;;;;;;;14.43;7.78;;;4.60;99.90;;;;;;5075646;28;20036;-68
2024/01/14 12:47:05;;;;;;;16.50;9.18;;;4.60;99.90;;;;;;5075470;28;20032;-68
2024/01/14 12:49:32;;;;;;;14.48;8.48;;;4.60;99.90;;;;;;5059239;28;20040;-68